Terminal Aerodrome Forecast
Issued by NWS Albany, NY

Home | Current Version | Previous Version | Text Only | Print | Product List | Glossary On
Versions: 1 2 3 4 5 6 7 8 9 10 11 12 13 14 15 16 17 18 19 20
000
FTUS41 KALY 210500 RRA
TAFALB
TAF
KALB 210543Z 2106/2206 VRB03KT 6SM -SHRA BR OVC025
      TEMPO 2106/2110 3SM -SHRA BR OVC020
     FM211000 VRB03KT 4SM -SHRA BR SCT010 OVC020
     FM211300 14005KT 3SM -RA BR OVC010
     FM211600 14005KT 5SM BR VCSH SCT010 OVC035
     FM212100 15008KT 4SM -SHRA BR OVC025=

USA.gov is the U.S. government's official web portal to all federal, state and local government web resources and services.